Arimo, Idaho
Current Conditions -  °F | °C
As of 9:53 PM on Friday 24 Oct 2014 (Local Time) from KPIH Reporting Station
Clear Clear  
Wind Chill: 63°   Ceiling: Unl
Heat Index: 63°   Visibility: 10mi
Dew Point: 24°   Wind: 12mph
Humidity: 23%   Direction: 180°S
Pressure: 30.06"   Gusts: NA
Location:  42.56°N, 112.17°W
Report Text: KPIH 250353Z 18010KT 10SM CLR 17/M04 A3006 RMK AO2 SLP148 T01721044
Loading
Personal Weather Stations






























Interactive Weather Map
Tropical Storm Tracking
New forecast layout! Learn more

10-Day Weather Forecast

Advertisements
Track Severe Weather on mobile